createdAt,value
2018-03-23T00:01:57.996Z,92.09
2018-03-23T00:04:25.471Z,92.21
2018-03-23T00:06:52.958Z,92.27
2018-03-23T00:09:20.467Z,92.22
2018-03-23T00:11:47.959Z,92.26
2018-03-23T00:14:15.415Z,92.47
2018-03-23T00:16:42.903Z,92.34
2018-03-23T00:19:10.396Z,92.49
2018-03-23T00:21:37.856Z,92.66
2018-03-23T00:24:05.353Z,92.63
2018-03-23T00:26:32.832Z,92.52
2018-03-23T00:29:00.284Z,92.70
2018-03-23T00:31:27.780Z,92.81
2018-03-23T00:33:55.247Z,92.94
2018-03-23T00:36:22.723Z,92.65
2018-03-23T00:38:50.182Z,92.61
2018-03-23T00:41:17.640Z,92.57
2018-03-23T00:43:45.122Z,92.52
2018-03-23T00:46:12.599Z,92.57
2018-03-23T00:48:40.082Z,92.66
2018-03-23T00:51:07.540Z,92.66
2018-03-23T00:53:35.036Z,92.81
2018-03-23T00:56:02.495Z,92.68
2018-03-23T00:58:29.986Z,92.62
2018-03-23T01:00:57.447Z,92.52
2018-03-23T01:03:24.928Z,92.44
2018-03-23T01:05:52.398Z,92.53
2018-03-23T01:08:19.875Z,92.51
2018-03-23T01:10:47.331Z,92.78
2018-03-23T01:13:14.827Z,92.72
2018-03-23T01:15:42.287Z,92.65
2018-03-23T01:18:09.784Z,92.75
2018-03-23T01:20:37.248Z,92.81
2018-03-23T01:23:04.728Z,93.05
2018-03-23T01:25:32.205Z,93.06
2018-03-23T01:27:59.694Z,93.38
2018-03-23T01:30:27.164Z,93.48
2018-03-23T01:32:54.646Z,93.74
2018-03-23T01:35:22.115Z,93.76
2018-03-23T01:37:49.607Z,93.93
2018-03-23T01:40:17.109Z,94.08
2018-03-23T01:42:44.584Z,94.45
2018-03-23T01:45:12.044Z,94.95
2018-03-23T01:47:39.529Z,95.22
2018-03-23T01:50:07.005Z,95.31
2018-03-23T01:52:34.492Z,95.29
2018-03-23T01:55:01.948Z,95.25
2018-03-23T01:57:29.439Z,95.10
2018-03-23T01:59:56.951Z,95.17
2018-03-23T02:02:24.456Z,95.33
2018-03-23T02:04:51.915Z,95.59
2018-03-23T02:07:19.378Z,95.66
2018-03-23T02:09:46.880Z,95.69
2018-03-23T02:12:14.339Z,95.63
2018-03-23T02:14:43.759Z,95.66
2018-03-23T02:17:11.223Z,95.87
2018-03-23T02:19:38.711Z,96.03
2018-03-23T02:22:06.172Z,96.22
2018-03-23T02:24:33.654Z,96.33
2018-03-23T02:27:01.118Z,96.54
2018-03-23T02:29:28.603Z,96.66
2018-03-23T02:31:56.072Z,96.54
2018-03-23T02:34:23.573Z,96.61
2018-03-23T02:36:51.036Z,96.81
2018-03-23T02:39:18.519Z,96.85
2018-03-23T02:41:45.987Z,96.93
2018-03-23T02:44:13.475Z,96.98
2018-03-23T02:46:40.931Z,97.02
2018-03-23T02:49:08.453Z,97.04
2018-03-23T02:51:35.921Z,97.13
2018-03-23T02:54:03.428Z,97.12
2018-03-23T02:56:30.891Z,96.92
2018-03-23T02:58:58.375Z,96.98
2018-03-23T03:01:25.836Z,97.03
2018-03-23T03:03:53.328Z,96.95
2018-03-23T03:06:20.803Z,96.80
2018-03-23T03:08:48.292Z,96.77
2018-03-23T03:11:15.772Z,96.72
2018-03-23T03:13:43.271Z,96.77
2018-03-23T03:16:10.751Z,96.69
2018-03-23T03:18:38.250Z,96.54
2018-03-23T03:21:05.715Z,96.38
2018-03-23T03:23:33.213Z,96.32
2018-03-23T03:26:00.667Z,96.28
2018-03-23T03:28:28.156Z,96.03
2018-03-23T03:30:55.617Z,95.85
2018-03-23T03:33:23.076Z,95.75
2018-03-23T03:35:50.547Z,95.46
2018-03-23T03:38:18.007Z,95.36
2018-03-23T03:40:45.499Z,95.45
2018-03-23T03:43:13.005Z,95.42
2018-03-23T03:45:40.490Z,95.36
2018-03-23T03:48:07.949Z,95.33
2018-03-23T03:50:35.440Z,95.23
2018-03-23T03:53:02.911Z,95.23
2018-03-23T03:55:30.395Z,95.28
2018-03-23T03:57:57.859Z,94.83
2018-03-23T04:00:25.343Z,94.78
2018-03-23T04:02:52.815Z,94.85
2018-03-23T04:05:20.308Z,94.85
2018-03-23T04:07:47.772Z,95.01
2018-03-23T04:10:15.256Z,94.80
2018-03-23T04:12:42.723Z,94.88
2018-03-23T04:15:10.203Z,94.92
2018-03-23T04:17:38.523Z,94.47
2018-03-23T04:20:06.002Z,94.47
2018-03-23T04:22:33.467Z,94.68
2018-03-23T04:25:00.963Z,94.46
2018-03-23T04:27:28.423Z,93.69
2018-03-23T04:29:55.902Z,93.19
2018-03-23T04:32:23.360Z,92.56
2018-03-23T04:34:50.837Z,92.67
2018-03-23T04:37:18.313Z,92.25
2018-03-23T04:39:45.850Z,92.17
2018-03-23T04:42:13.267Z,91.77
2018-03-23T04:44:40.764Z,92.08
2018-03-23T04:47:08.233Z,91.97
2018-03-23T04:49:35.715Z,92.12
2018-03-23T04:52:03.212Z,92.04
2018-03-23T04:54:30.689Z,91.93
2018-03-23T04:56:58.175Z,91.92
2018-03-23T04:59:25.629Z,91.35
2018-03-23T05:01:53.111Z,91.30
2018-03-23T05:04:20.578Z,91.44
2018-03-23T05:06:48.058Z,92.07
2018-03-23T05:09:15.515Z,92.41
2018-03-23T05:11:43.055Z,92.36
2018-03-23T05:14:10.529Z,92.17
2018-03-23T05:16:38.008Z,92.33
2018-03-23T05:19:05.483Z,92.24
2018-03-23T05:21:33.018Z,92.29
2018-03-23T05:24:00.479Z,91.80
2018-03-23T05:26:27.956Z,91.57
2018-03-23T05:28:55.423Z,91.53
2018-03-23T05:31:22.904Z,91.40
2018-03-23T05:33:50.371Z,91.18
2018-03-23T05:36:18.555Z,91.10
2018-03-23T05:38:46.014Z,91.36
2018-03-23T05:41:13.492Z,91.92
2018-03-23T05:43:40.957Z,91.50
2018-03-23T05:46:08.548Z,91.19
2018-03-23T05:48:36.007Z,91.40
2018-03-23T05:51:03.488Z,91.60
2018-03-23T05:53:30.948Z,91.20
2018-03-23T05:55:58.427Z,90.92
2018-03-23T05:58:25.892Z,91.17
2018-03-23T06:00:53.382Z,90.28
2018-03-23T06:03:20.850Z,89.35
2018-03-23T06:05:48.629Z,89.32
2018-03-23T06:08:16.111Z,88.57
2018-03-23T06:10:43.592Z,88.48
2018-03-23T06:13:11.060Z,88.77
2018-03-23T06:15:38.534Z,88.34
2018-03-23T06:18:05.999Z,88.41
2018-03-23T06:20:35.297Z,88.34
2018-03-23T06:23:02.775Z,88.04
2018-03-23T06:25:30.233Z,88.14
2018-03-23T06:27:57.718Z,87.61
2018-03-23T06:30:25.191Z,87.17
2018-03-23T06:32:52.671Z,87.45
2018-03-23T06:35:20.127Z,87.46
2018-03-23T06:37:47.610Z,87.96
2018-03-23T06:40:15.668Z,88.16
2018-03-23T06:42:43.147Z,88.07
2018-03-23T06:45:10.625Z,88.55
2018-03-23T06:47:38.107Z,88.73
2018-03-23T06:50:05.568Z,88.78
2018-03-23T06:52:33.055Z,87.84
2018-03-23T06:55:00.522Z,87.75
2018-03-23T06:57:28.042Z,88.14
2018-03-23T06:59:55.514Z,89.01
2018-03-23T07:02:22.991Z,89.01
2018-03-23T07:04:50.456Z,88.56
2018-03-23T07:07:17.951Z,88.54
2018-03-23T07:09:45.420Z,87.95
2018-03-23T07:12:13.186Z,88.06
2018-03-23T07:14:40.659Z,88.50
2018-03-23T07:17:08.162Z,87.64
2018-03-23T07:19:35.631Z,88.18
2018-03-23T07:22:03.116Z,87.67
2018-03-23T07:24:30.600Z,87.42
2018-03-23T07:26:58.084Z,87.47
2018-03-23T07:29:25.592Z,87.06
2018-03-23T07:31:53.065Z,88.53
2018-03-23T07:34:20.538Z,87.37
2018-03-23T07:36:48.264Z,87.26
2018-03-23T07:39:15.730Z,86.60
2018-03-23T07:41:43.224Z,87.16
2018-03-23T07:44:10.703Z,86.48
2018-03-23T07:46:38.188Z,85.33
2018-03-23T07:49:05.710Z,86.15
2018-03-23T07:51:33.180Z,84.89
2018-03-23T07:54:00.663Z,84.75
2018-03-23T07:56:28.123Z,83.41
2018-03-23T07:58:55.598Z,83.19
2018-03-23T08:01:23.063Z,83.20
2018-03-23T08:03:50.557Z,82.91
2018-03-23T08:06:18.018Z,83.14
2018-03-23T08:08:45.610Z,81.49
2018-03-23T08:11:13.386Z,81.56
2018-03-23T08:13:40.876Z,79.82
2018-03-23T08:16:09.495Z,80.91
2018-03-23T08:18:36.985Z,79.29
2018-03-23T08:21:04.519Z,79.90
2018-03-23T08:23:32.013Z,78.38
2018-03-23T08:26:01.305Z,80.11
2018-03-23T08:28:28.865Z,79.16
2018-03-23T08:30:56.352Z,79.76
2018-03-23T08:33:23.825Z,79.19
2018-03-23T08:35:51.375Z,77.69
2018-03-23T08:38:18.859Z,77.62
2018-03-23T08:40:46.363Z,78.66
2018-03-23T08:43:13.847Z,77.30
2018-03-23T08:45:41.308Z,77.30
2018-03-23T08:48:08.827Z,76.79
2018-03-23T08:50:36.880Z,77.69
2018-03-23T08:53:04.381Z,76.94
2018-03-23T08:55:32.686Z,76.25
2018-03-23T08:58:00.175Z,75.08
2018-03-23T09:00:27.663Z,73.86
2018-03-23T09:02:55.158Z,74.49
2018-03-23T09:05:22.627Z,74.81
2018-03-23T09:07:50.100Z,75.54
2018-03-23T09:10:17.586Z,74.82
2018-03-23T09:12:45.049Z,76.49
2018-03-23T09:15:12.574Z,75.37
2018-03-23T09:17:40.048Z,76.34
2018-03-23T09:20:07.531Z,76.20
2018-03-23T09:22:35.007Z,75.90
2018-03-23T09:25:02.498Z,77.55
2018-03-23T09:27:29.967Z,75.99
2018-03-23T09:29:57.451Z,74.69
2018-03-23T09:32:24.928Z,72.61
2018-03-23T09:34:52.410Z,75.21
2018-03-23T09:37:19.894Z,77.57
2018-03-23T09:39:47.397Z,76.47
2018-03-23T09:42:14.867Z,74.00
2018-03-23T09:44:42.364Z,74.25
2018-03-23T09:47:09.832Z,74.23
2018-03-23T09:49:37.331Z,73.72
2018-03-23T09:52:04.787Z,72.72
2018-03-23T09:54:32.263Z,72.59
2018-03-23T09:56:59.762Z,70.84
2018-03-23T09:59:27.310Z,71.54
2018-03-23T10:01:54.769Z,70.49
2018-03-23T10:04:22.263Z,71.61
2018-03-23T10:06:49.772Z,69.89
2018-03-23T10:09:17.251Z,69.52
2018-03-23T10:11:44.742Z,69.31
2018-03-23T10:14:12.228Z,71.13
2018-03-23T10:16:39.697Z,69.08
2018-03-23T10:19:07.215Z,69.60
2018-03-23T10:21:34.717Z,71.06
2018-03-23T10:24:02.207Z,69.98
2018-03-23T10:26:29.691Z,68.67
2018-03-23T10:28:57.171Z,67.85
2018-03-23T10:31:24.686Z,69.27
2018-03-23T10:33:52.166Z,69.66
2018-03-23T10:36:19.664Z,70.74
2018-03-23T10:38:47.143Z,70.42
2018-03-23T10:41:14.631Z,69.65
2018-03-23T10:43:42.107Z,68.73
2018-03-23T10:46:09.595Z,68.08
2018-03-23T10:48:37.056Z,67.96
2018-03-23T10:51:04.547Z,68.62
2018-03-23T10:53:32.069Z,66.49
2018-03-23T10:55:59.530Z,67.01
2018-03-23T10:58:27.011Z,69.01
2018-03-23T11:01:00.208Z,68.89
2018-03-23T11:03:28.395Z,68.61
2018-03-23T11:05:55.895Z,70.29
2018-03-23T11:08:23.392Z,69.91
2018-03-23T11:10:50.875Z,72.54
2018-03-23T11:13:18.341Z,72.31
2018-03-23T11:15:45.841Z,72.81
2018-03-23T11:18:13.303Z,72.40
2018-03-23T11:20:40.788Z,72.93
2018-03-23T11:23:08.260Z,73.02
2018-03-23T11:25:35.737Z,73.92
2018-03-23T11:28:03.202Z,74.86
2018-03-23T11:30:30.688Z,73.73
2018-03-23T11:32:58.152Z,72.25
2018-03-23T11:35:25.639Z,72.82
2018-03-23T11:37:53.133Z,74.15
2018-03-23T11:40:20.598Z,71.73
2018-03-23T11:42:48.065Z,72.31
2018-03-23T11:45:15.552Z,72.64
2018-03-23T11:47:43.017Z,73.36
2018-03-23T11:50:10.519Z,72.66
2018-03-23T11:52:37.984Z,72.12
2018-03-23T11:55:05.440Z,73.20
2018-03-23T11:57:32.923Z,73.33
2018-03-23T12:00:00.403Z,74.62
2018-03-23T12:02:27.893Z,74.32
2018-03-23T12:04:55.352Z,73.48
2018-03-23T12:07:22.836Z,73.76
2018-03-23T12:09:50.292Z,73.87
2018-03-23T12:12:17.780Z,71.04
2018-03-23T12:14:45.231Z,73.49
2018-03-23T12:17:12.748Z,71.90
2018-03-23T12:19:40.207Z,72.48
2018-03-23T12:22:07.684Z,72.56
2018-03-23T12:24:35.143Z,71.70
2018-03-23T12:27:02.633Z,72.13
2018-03-23T12:29:30.088Z,72.89
2018-03-23T12:31:57.646Z,71.95
2018-03-23T12:34:25.079Z,72.77
2018-03-23T12:36:52.568Z,73.27
2018-03-23T12:39:20.519Z,73.46
2018-03-23T12:41:48.057Z,73.46
2018-03-23T12:44:15.548Z,73.16
2018-03-23T12:46:43.027Z,73.01
2018-03-23T12:49:16.968Z,73.67
2018-03-23T12:51:44.459Z,72.83
2018-03-23T12:54:15.455Z,73.30
2018-03-23T12:56:44.965Z,72.36
2018-03-23T13:01:57.455Z,72.61
2018-03-23T13:04:24.902Z,73.24
2018-03-23T13:06:53.210Z,73.27
2018-03-23T13:09:20.675Z,73.52
2018-03-23T13:11:48.163Z,73.05
2018-03-23T13:14:15.630Z,73.24
2018-03-23T13:16:43.164Z,72.90
2018-03-23T13:19:12.681Z,70.76
2018-03-23T13:21:40.162Z,72.40
2018-03-23T13:24:07.615Z,73.22
2018-03-23T13:26:35.115Z,72.09
2018-03-23T13:29:02.573Z,72.47
2018-03-23T13:31:30.050Z,71.44
2018-03-23T13:33:57.499Z,71.71
2018-03-23T13:36:24.984Z,71.06
2018-03-23T13:38:53.356Z,70.70
2018-03-23T13:41:20.822Z,70.52
2018-03-23T13:43:48.299Z,72.47
2018-03-23T13:46:15.784Z,70.69
2018-03-23T13:48:43.271Z,71.03
2018-03-23T13:51:10.833Z,71.10
2018-03-23T13:53:45.074Z,71.02
2018-03-23T13:56:12.572Z,70.75
2018-03-23T13:58:45.588Z,70.21
2018-03-23T14:01:18.487Z,70.59
2018-03-23T14:03:45.956Z,70.81
2018-03-23T14:06:13.409Z,71.47
2018-03-23T14:08:40.894Z,72.32
2018-03-23T14:11:08.339Z,71.03
2018-03-23T14:13:35.830Z,70.47
2018-03-23T14:16:03.642Z,71.61
2018-03-23T14:18:31.115Z,72.76
2018-03-23T14:20:58.571Z,71.55
2018-03-23T14:23:26.109Z,71.88
2018-03-23T14:25:53.541Z,71.71
2018-03-23T14:28:21.018Z,71.69
2018-03-23T14:30:48.493Z,71.35
2018-03-23T14:33:15.974Z,71.20
2018-03-23T14:35:43.470Z,71.93
2018-03-23T14:38:11.816Z,71.43
2018-03-23T14:40:39.756Z,71.30
2018-03-23T14:43:07.219Z,72.48
2018-03-23T14:45:34.668Z,71.19
2018-03-23T14:48:02.144Z,71.88
2018-03-23T14:50:29.600Z,71.17
2018-03-23T14:52:57.075Z,71.10
2018-03-23T14:55:24.535Z,69.60
2018-03-23T14:57:52.011Z,69.96
2018-03-23T15:00:19.458Z,69.27
2018-03-23T15:02:46.952Z,69.79
2018-03-23T15:05:14.407Z,70.04
2018-03-23T15:07:42.823Z,71.03
2018-03-23T15:10:10.285Z,70.93
2018-03-23T15:12:37.766Z,71.39
2018-03-23T15:15:05.248Z,71.58
2018-03-23T15:17:32.699Z,72.42
2018-03-23T15:20:00.188Z,71.54
2018-03-23T15:22:28.451Z,72.72
2018-03-23T15:24:56.232Z,73.21
2018-03-23T15:27:23.684Z,73.58
2018-03-23T15:29:52.120Z,73.88
2018-03-23T15:32:19.579Z,72.55
2018-03-23T15:34:47.063Z,71.99
2018-03-23T15:37:14.522Z,71.29
2018-03-23T15:39:42.017Z,71.95
2018-03-23T15:42:09.492Z,71.96
2018-03-23T15:44:36.975Z,72.25
2018-03-23T15:47:04.439Z,71.89
2018-03-23T15:49:31.936Z,72.66
2018-03-23T15:51:59.415Z,71.62
2018-03-23T15:54:26.887Z,72.20
2018-03-23T15:56:54.406Z,72.73
2018-03-23T15:59:21.895Z,73.34
2018-03-23T16:01:49.427Z,73.35
2018-03-23T16:04:16.907Z,74.26
2018-03-23T16:06:44.370Z,73.84
2018-03-23T16:09:17.750Z,73.44
2018-03-23T16:11:45.368Z,74.30
2018-03-23T16:14:12.867Z,73.87
2018-03-23T16:16:40.327Z,74.46
2018-03-23T16:19:07.806Z,74.61
2018-03-23T16:21:35.277Z,75.54
2018-03-23T16:24:02.767Z,75.87
2018-03-23T16:26:45.160Z,75.44
2018-03-23T16:29:12.671Z,74.91
2018-03-23T16:31:45.070Z,75.37
2018-03-23T16:34:16.685Z,75.27
2018-03-23T16:36:45.698Z,75.29
2018-03-23T16:39:17.210Z,75.52
2018-03-23T16:41:46.020Z,75.66
2018-03-23T16:44:17.118Z,74.73
2018-03-23T16:46:44.617Z,75.80
2018-03-23T16:49:12.753Z,75.53
2018-03-23T16:51:42.725Z,76.13
2018-03-23T16:54:14.581Z,75.97
2018-03-23T16:56:42.296Z,75.91
2018-03-23T16:59:09.795Z,75.36
2018-03-23T17:01:37.304Z,75.03
2018-03-23T17:04:05.631Z,75.27
2018-03-23T17:06:33.121Z,75.59
2018-03-23T17:09:00.645Z,75.82
2018-03-23T17:11:28.088Z,75.57
2018-03-23T17:13:55.563Z,75.21
2018-03-23T17:16:23.039Z,75.88
2018-03-23T17:18:50.496Z,75.13
2018-03-23T17:21:22.916Z,75.96
2018-03-23T17:23:50.381Z,76.15
2018-03-23T17:26:21.566Z,75.68
2018-03-23T17:28:49.035Z,75.36
2018-03-23T17:31:17.774Z,76.18
2018-03-23T17:33:45.235Z,76.12
2018-03-23T17:36:12.728Z,76.03
2018-03-23T17:38:44.412Z,75.88
2018-03-23T17:41:11.944Z,74.56
2018-03-23T17:43:39.557Z,74.95
2018-03-23T17:46:08.683Z,74.69
2018-03-23T17:48:37.279Z,74.36
2018-03-23T17:51:05.426Z,73.96
2018-03-23T17:53:34.014Z,74.47
2018-03-23T17:56:03.569Z,74.09
2018-03-23T17:58:33.254Z,73.24
2018-03-23T18:01:01.288Z,73.46
2018-03-23T18:03:29.320Z,74.56
2018-03-23T18:05:57.825Z,74.82
2018-03-23T18:08:25.350Z,74.42
2018-03-23T18:10:52.827Z,73.35
2018-03-23T18:13:20.892Z,73.73
2018-03-23T18:15:48.596Z,74.58
2018-03-23T18:18:16.109Z,75.14
2018-03-23T18:20:43.618Z,75.95
2018-03-23T18:23:11.710Z,74.36
2018-03-23T18:25:39.995Z,74.42
2018-03-23T18:28:07.450Z,74.50
2018-03-23T18:30:35.852Z,75.31
2018-03-23T18:33:03.319Z,76.05
2018-03-23T18:35:30.814Z,75.37
2018-03-23T18:37:58.324Z,74.87
2018-03-23T18:40:25.804Z,74.82
2018-03-23T18:42:53.565Z,74.67
2018-03-23T18:45:21.104Z,74.52
2018-03-23T18:47:48.578Z,74.16
2018-03-23T18:50:16.055Z,73.80
2018-03-23T18:52:43.859Z,73.94
2018-03-23T18:55:11.408Z,75.46
2018-03-23T18:57:38.916Z,75.58
2018-03-23T19:00:06.420Z,75.76
2018-03-23T19:02:33.895Z,74.85
2018-03-23T19:05:01.355Z,74.21
2018-03-23T19:07:28.853Z,74.63
2018-03-23T19:09:56.752Z,74.50
2018-03-23T19:12:24.227Z,74.62
2018-03-23T19:14:51.678Z,74.97
2018-03-23T19:17:19.163Z,75.81
2018-03-23T19:19:46.615Z,75.43
2018-03-23T19:22:14.090Z,75.90
2018-03-23T19:24:41.555Z,75.27
2018-03-23T19:27:09.039Z,75.88
2018-03-23T19:29:36.487Z,74.60
2018-03-23T19:32:03.961Z,75.44
2018-03-23T19:34:31.415Z,75.14
2018-03-23T19:36:58.885Z,75.02
2018-03-23T19:39:26.348Z,75.07
2018-03-23T19:41:53.859Z,75.48
2018-03-23T19:44:21.312Z,75.99
2018-03-23T19:46:48.787Z,76.65
2018-03-23T19:49:16.251Z,76.25
2018-03-23T19:51:43.749Z,75.93
2018-03-23T19:54:11.211Z,75.46
2018-03-23T19:56:38.695Z,75.86
2018-03-23T19:59:07.112Z,76.96
2018-03-23T20:01:35.331Z,76.66
2018-03-23T20:04:04.446Z,76.69
2018-03-23T20:06:33.467Z,76.18
2018-03-23T20:09:02.373Z,76.50
2018-03-23T20:11:31.090Z,76.89
2018-03-23T20:14:10.433Z,76.59
2018-03-23T20:16:39.026Z,77.25
2018-03-23T20:19:06.619Z,76.76
2018-03-23T20:21:34.254Z,76.69
2018-03-23T20:24:08.013Z,76.50
2018-03-23T20:26:35.496Z,77.05
2018-03-23T20:29:03.000Z,76.62
2018-03-23T20:31:36.128Z,77.05
2018-03-23T20:34:03.616Z,76.52
2018-03-23T20:36:31.083Z,76.54
2018-03-23T20:38:58.589Z,76.53
2018-03-23T20:41:26.978Z,78.15
2018-03-23T20:43:54.457Z,78.16
2018-03-23T20:46:21.919Z,78.33
2018-03-23T20:48:49.426Z,78.52
2018-03-23T20:51:16.890Z,78.28
2018-03-23T20:53:44.372Z,77.37
2018-03-23T20:56:11.850Z,77.31
2018-03-23T20:58:39.333Z,76.80
2018-03-23T21:01:06.808Z,78.30
2018-03-23T21:03:34.756Z,78.08
2018-03-23T21:06:02.240Z,78.21
2018-03-23T21:08:29.715Z,78.39
2018-03-23T21:10:57.171Z,78.80
2018-03-23T21:13:24.661Z,78.47
2018-03-23T21:15:52.134Z,78.66
2018-03-23T21:18:19.628Z,78.20
2018-03-23T21:20:47.792Z,78.26
2018-03-23T21:23:15.274Z,78.09
2018-03-23T21:25:42.760Z,78.29
2018-03-23T21:28:10.264Z,78.08
2018-03-23T21:30:37.739Z,79.09
2018-03-23T21:33:05.248Z,78.41
2018-03-23T21:35:32.706Z,77.75
2018-03-23T21:38:00.199Z,77.20
2018-03-23T21:40:27.672Z,77.55
2018-03-23T21:42:55.159Z,76.54
2018-03-23T21:45:22.619Z,76.81
2018-03-23T21:47:50.142Z,76.90
2018-03-23T21:50:17.655Z,75.83
2018-03-23T21:52:45.115Z,74.99
2018-03-23T21:55:12.615Z,76.49
2018-03-23T21:57:40.086Z,76.28
2018-03-23T22:00:08.428Z,76.58
2018-03-23T22:02:35.899Z,76.55
2018-03-23T22:05:03.392Z,75.89
2018-03-23T22:07:30.855Z,76.67
2018-03-23T22:09:58.367Z,76.83
2018-03-23T22:12:25.827Z,76.45
2018-03-23T22:14:53.315Z,76.33
2018-03-23T22:17:20.779Z,76.28
2018-03-23T22:19:48.279Z,75.34
2018-03-23T22:22:16.152Z,75.75
2018-03-23T22:24:43.639Z,75.42
2018-03-23T22:27:11.115Z,75.34
2018-03-23T22:29:38.602Z,75.17
2018-03-23T22:32:06.067Z,75.12
2018-03-23T22:34:34.344Z,76.09
2018-03-23T22:37:01.799Z,76.02
2018-03-23T22:39:29.280Z,75.20
2018-03-23T22:41:56.731Z,75.09
2018-03-23T22:44:24.215Z,75.56
2018-03-23T22:46:51.688Z,75.60
2018-03-23T22:49:19.167Z,76.23
2018-03-23T22:51:46.624Z,76.54
2018-03-23T22:54:14.112Z,77.21
2018-03-23T22:56:41.571Z,77.30
2018-03-23T22:59:09.050Z,77.58
2018-03-23T23:01:36.507Z,77.78
2018-03-23T23:04:03.991Z,77.39
2018-03-23T23:06:31.450Z,77.03
2018-03-23T23:08:58.935Z,77.07
2018-03-23T23:11:26.404Z,77.34
2018-03-23T23:13:53.891Z,76.52
2018-03-23T23:16:21.350Z,77.28
2018-03-23T23:18:48.817Z,77.00
2018-03-23T23:21:16.339Z,76.65
2018-03-23T23:23:43.796Z,76.72
2018-03-23T23:26:11.281Z,76.78
2018-03-23T23:28:38.743Z,76.67
2018-03-23T23:31:06.229Z,77.58
2018-03-23T23:33:33.725Z,77.21
2018-03-23T23:36:01.195Z,77.27
2018-03-23T23:38:28.659Z,77.36
2018-03-23T23:40:56.149Z,77.37
2018-03-23T23:43:23.622Z,77.46
2018-03-23T23:45:51.107Z,77.47
2018-03-23T23:48:18.575Z,77.50
2018-03-23T23:50:46.060Z,77.51
2018-03-23T23:53:13.523Z,77.87
2018-03-23T23:55:41.002Z,77.76
2018-03-23T23:58:08.470Z,77.74
